createdAt,value
2023-02-08T00:00:02.440Z,17.80
2023-02-08T00:02:35.209Z,18.20
2023-02-08T00:05:03.901Z,18.10
2023-02-08T00:07:32.119Z,17.02
2023-02-08T00:10:00.089Z,15.43
2023-02-08T00:12:29.431Z,15.23
2023-02-08T00:14:57.127Z,14.90
2023-02-08T00:17:25.112Z,13.93
2023-02-08T00:19:53.099Z,14.48
2023-02-08T00:22:21.344Z,12.32
2023-02-08T00:24:49.138Z,12.35
2023-02-08T00:27:17.745Z,12.32
2023-02-08T00:29:46.999Z,12.60
2023-02-08T00:32:15.174Z,12.73
2023-02-08T00:34:43.105Z,12.02
2023-02-08T00:37:11.021Z,11.23
2023-02-08T00:39:39.289Z,11.02
2023-02-08T00:42:07.301Z,11.93
2023-02-08T00:44:35.217Z,10.80
2023-02-08T00:47:04.529Z,10.57
2023-02-08T00:49:33.248Z,10.45
2023-02-08T00:52:01.235Z,10.63
2023-02-08T00:54:29.011Z,10.70
2023-02-08T00:56:56.881Z,10.93
2023-02-08T00:59:25.815Z,11.05
2023-02-08T01:01:53.616Z,11.13
2023-02-08T01:04:23.048Z,11.48
2023-02-08T01:06:51.487Z,10.38
2023-02-08T01:09:19.226Z,10.95
2023-02-08T01:11:50.389Z,10.68
2023-02-08T01:14:18.521Z,11.25
2023-02-08T01:16:46.500Z,11.95
2023-02-08T01:19:14.776Z,11.02
2023-02-08T01:21:44.241Z,11.90
2023-02-08T01:24:12.879Z,11.10
2023-02-08T01:26:40.789Z,10.50
2023-02-08T01:29:09.455Z,11.55
2023-02-08T01:31:38.829Z,9.63
2023-02-08T01:34:08.404Z,11.35
2023-02-08T01:36:37.180Z,11.45
2023-02-08T01:39:07.626Z,10.77
2023-02-08T01:41:38.379Z,10.93
2023-02-08T01:44:09.666Z,10.68
2023-02-08T01:46:39.428Z,11.80
2023-02-08T01:49:12.219Z,11.90
2023-02-08T01:51:42.788Z,11.93
2023-02-08T01:54:13.341Z,11.23
2023-02-08T01:56:45.953Z,12.57
2023-02-08T01:59:17.296Z,11.18
2023-02-08T02:01:47.404Z,11.77
2023-02-08T02:04:15.603Z,11.85
2023-02-08T02:06:48.874Z,12.02
2023-02-08T02:09:22.177Z,11.55
2023-02-08T02:11:51.269Z,11.60
2023-02-08T02:14:19.567Z,10.85
2023-02-08T02:16:48.373Z,10.75
2023-02-08T02:19:22.132Z,10.02
2023-02-08T02:21:59.755Z,11.45
2023-02-08T02:25:01.110Z,11.02
2023-02-08T02:27:40.254Z,10.95
2023-02-08T02:30:33.829Z,11.25
2023-02-08T02:33:10.836Z,12.00
2023-02-08T02:35:43.799Z,12.02
2023-02-08T02:38:16.435Z,12.13
2023-02-08T02:40:52.100Z,12.40
2023-02-08T02:43:41.725Z,11.02
2023-02-08T02:46:17.043Z,12.45
2023-02-08T02:48:50.027Z,11.50
2023-02-08T02:51:21.484Z,11.43
2023-02-08T02:53:52.759Z,12.02
2023-02-08T02:56:25.483Z,12.68
2023-02-08T02:58:54.375Z,12.10
2023-02-08T03:01:26.131Z,12.07
2023-02-08T03:03:55.829Z,11.35
2023-02-08T03:06:30.412Z,11.73
2023-02-08T03:09:14.072Z,11.07
2023-02-08T03:11:46.545Z,11.93
2023-02-08T03:14:25.483Z,10.77
2023-02-08T03:17:15.609Z,11.15
2023-02-08T03:19:48.420Z,12.70
2023-02-08T03:22:18.664Z,11.25
2023-02-08T03:24:52.202Z,11.57
2023-02-08T03:27:25.095Z,11.93
2023-02-08T03:29:57.684Z,11.83
2023-02-08T03:32:27.983Z,12.00
2023-02-08T03:34:59.785Z,12.05
2023-02-08T03:37:29.254Z,11.40
2023-02-08T03:40:01.230Z,11.45
2023-02-08T03:42:29.835Z,11.30
2023-02-08T03:45:01.098Z,11.60
2023-02-08T03:47:31.780Z,12.35
2023-02-08T03:50:03.067Z,11.93
2023-02-08T03:52:32.033Z,12.30
2023-02-08T03:55:04.384Z,11.40
2023-02-08T03:57:35.841Z,11.57
2023-02-08T04:00:07.975Z,12.40
2023-02-08T04:02:44.869Z,11.90
2023-02-08T04:05:15.065Z,12.93
2023-02-08T04:07:43.009Z,11.38
2023-02-08T04:10:11.256Z,12.35
2023-02-08T04:12:39.361Z,12.15
2023-02-08T04:15:08.363Z,12.20
2023-02-08T04:17:36.184Z,12.43
2023-02-08T04:20:04.181Z,11.98
2023-02-08T04:22:33.628Z,12.95
2023-02-08T04:25:01.845Z,11.27
2023-02-08T04:27:29.954Z,12.02
2023-02-08T04:29:57.773Z,12.50
2023-02-08T04:32:25.744Z,12.18
2023-02-08T04:34:54.095Z,11.73
2023-02-08T04:37:21.939Z,11.32
2023-02-08T04:39:51.173Z,12.25
2023-02-08T04:42:18.992Z,12.15
2023-02-08T04:44:46.808Z,11.70
2023-02-08T04:47:15.016Z,12.27
2023-02-08T04:49:42.973Z,12.75
2023-02-08T04:52:11.081Z,11.57
2023-02-08T04:54:40.849Z,11.93
2023-02-08T04:57:10.360Z,13.00
2023-02-08T04:59:38.147Z,11.57
2023-02-08T05:02:06.016Z,11.63
2023-02-08T05:04:34.015Z,12.20
2023-02-08T05:07:02.053Z,12.20
2023-02-08T05:09:29.839Z,12.32
2023-02-08T05:11:57.925Z,11.93
2023-02-08T05:14:27.325Z,12.18
2023-02-08T05:16:55.209Z,11.25
2023-02-08T05:19:22.883Z,12.10
2023-02-08T05:21:50.982Z,11.50
2023-02-08T05:24:18.790Z,11.77
2023-02-08T05:26:47.119Z,11.93
2023-02-08T05:29:15.386Z,11.80
2023-02-08T05:31:44.671Z,12.00
2023-02-08T05:34:12.844Z,11.77
2023-02-08T05:36:40.782Z,11.20
2023-02-08T05:39:08.697Z,12.30
2023-02-08T05:41:37.267Z,12.55
2023-02-08T05:44:05.276Z,12.65
2023-02-08T05:46:33.300Z,11.40
2023-02-08T05:49:02.855Z,11.65
2023-02-08T05:51:30.747Z,12.45
2023-02-08T05:53:58.779Z,12.65
2023-02-08T05:56:27.537Z,12.50
2023-02-08T05:58:55.355Z,12.52
2023-02-08T06:01:24.738Z,13.20
2023-02-08T06:03:52.538Z,14.18
2023-02-08T06:06:21.888Z,13.07
2023-02-08T06:08:49.660Z,12.63
2023-02-08T06:11:19.259Z,12.48
2023-02-08T06:13:47.401Z,12.38
2023-02-08T06:16:18.300Z,13.18
2023-02-08T06:18:47.702Z,12.90
2023-02-08T06:21:15.890Z,12.07
2023-02-08T06:23:45.237Z,12.13
2023-02-08T06:26:13.067Z,12.38
2023-02-08T06:28:40.905Z,12.02
2023-02-08T06:31:08.806Z,11.77
2023-02-08T06:33:37.132Z,12.65
2023-02-08T06:36:05.274Z,12.27
2023-02-08T06:38:33.234Z,11.90
2023-02-08T06:41:02.398Z,12.88
2023-02-08T06:43:30.201Z,11.32
2023-02-08T06:45:58.079Z,12.68
2023-02-08T06:48:26.037Z,12.18
2023-02-08T06:50:55.434Z,12.43
2023-02-08T06:53:23.200Z,12.23
2023-02-08T06:55:51.495Z,12.80
2023-02-08T06:58:21.066Z,12.27
2023-02-08T07:00:48.852Z,13.48
2023-02-08T07:03:17.545Z,13.68
2023-02-08T07:06:02.540Z,13.38
2023-02-08T07:08:31.925Z,12.63
2023-02-08T07:10:59.673Z,12.68
2023-02-08T07:13:29.277Z,14.00
2023-02-08T07:15:57.186Z,14.75
2023-02-08T07:18:25.661Z,13.90
2023-02-08T07:20:53.578Z,14.15
2023-02-08T07:23:21.522Z,13.90
2023-02-08T07:25:58.405Z,14.70
2023-02-08T07:28:26.681Z,14.65
2023-02-08T07:30:58.882Z,15.25
2023-02-08T07:33:27.241Z,14.52
2023-02-08T07:35:55.015Z,14.23
2023-02-08T07:38:25.502Z,14.77
2023-02-08T07:40:53.615Z,13.70
2023-02-08T07:43:21.583Z,15.05
2023-02-08T07:45:59.345Z,14.75
2023-02-08T07:48:27.206Z,14.98
2023-02-08T07:50:54.986Z,14.20
2023-02-08T07:53:23.086Z,14.20
2023-02-08T07:55:51.734Z,14.82
2023-02-08T07:58:19.666Z,15.88
2023-02-08T08:00:47.505Z,14.88
2023-02-08T08:03:16.769Z,14.20
2023-02-08T08:05:46.074Z,14.63
2023-02-08T08:08:14.422Z,14.73
2023-02-08T08:10:43.059Z,13.70
2023-02-08T08:13:11.008Z,14.57
2023-02-08T08:15:38.902Z,14.68
2023-02-08T08:18:06.905Z,14.10
2023-02-08T08:20:36.403Z,14.40
2023-02-08T08:23:05.044Z,15.48
2023-02-08T08:25:32.927Z,16.30
2023-02-08T08:28:01.794Z,15.13
2023-02-08T08:30:29.686Z,14.57
2023-02-08T08:32:57.502Z,14.57
2023-02-08T08:35:25.607Z,14.77
2023-02-08T08:37:54.639Z,13.85
2023-02-08T08:40:24.317Z,12.27
2023-02-08T08:42:52.945Z,14.57
2023-02-08T08:45:20.881Z,19.80
2023-02-08T08:47:49.050Z,16.85
2023-02-08T08:50:17.194Z,14.80
2023-02-08T08:52:44.967Z,15.77
2023-02-08T08:55:14.298Z,19.92
2023-02-08T08:57:42.324Z,16.27
2023-02-08T09:00:12.586Z,15.55
2023-02-08T09:02:40.467Z,15.00
2023-02-08T09:05:08.499Z,15.32
2023-02-08T09:07:36.438Z,14.23
2023-02-08T09:10:04.736Z,16.75
2023-02-08T09:12:34.090Z,14.23
2023-02-08T09:15:02.980Z,14.20
2023-02-08T09:17:30.787Z,13.27
2023-02-08T09:19:58.545Z,14.32
2023-02-08T09:22:26.539Z,12.65
2023-02-08T09:24:54.591Z,12.07
2023-02-08T09:27:23.362Z,11.25
2023-02-08T09:29:57.214Z,12.07
2023-02-08T09:32:25.283Z,11.73
2023-02-08T09:34:52.939Z,16.90
2023-02-08T09:37:20.879Z,15.13
2023-02-08T09:39:48.643Z,12.52
2023-02-08T09:42:26.816Z,11.52
2023-02-08T09:45:07.086Z,10.85
2023-02-08T09:47:36.312Z,12.32
2023-02-08T09:50:08.071Z,12.98
2023-02-08T09:52:39.541Z,12.32
2023-02-08T09:55:18.835Z,11.95
2023-02-08T09:57:47.556Z,10.50
2023-02-08T10:00:21.254Z,10.95
2023-02-08T10:02:50.108Z,9.98
2023-02-08T10:05:23.033Z,9.23
2023-02-08T10:07:50.936Z,9.17
2023-02-08T10:10:25.781Z,10.07
2023-02-08T10:12:59.579Z,9.82
2023-02-08T10:15:37.864Z,9.35
2023-02-08T10:18:29.381Z,9.32
2023-02-08T10:21:07.088Z,8.90
2023-02-08T10:23:47.201Z,9.63
2023-02-08T10:26:18.807Z,8.95
2023-02-08T10:29:01.939Z,9.57
2023-02-08T10:31:43.291Z,8.07
2023-02-08T10:34:20.276Z,9.88
2023-02-08T10:36:48.335Z,9.13
2023-02-08T10:39:17.902Z,9.77
2023-02-08T10:41:47.506Z,9.52
2023-02-08T10:44:28.133Z,10.80
2023-02-08T10:47:07.311Z,9.98
2023-02-08T10:49:40.936Z,9.60
2023-02-08T10:52:09.099Z,10.65
2023-02-08T10:54:37.118Z,10.25
2023-02-08T10:57:06.603Z,9.60
2023-02-08T10:59:38.230Z,10.27
2023-02-08T11:02:21.762Z,10.38
2023-02-08T11:05:00.282Z,10.15
2023-02-08T11:07:28.402Z,9.98
2023-02-08T11:09:56.247Z,9.25
2023-02-08T11:12:24.349Z,8.55
2023-02-08T11:14:53.902Z,8.88
2023-02-08T11:17:28.009Z,9.27
2023-02-08T11:19:58.998Z,9.35
2023-02-08T11:22:31.023Z,8.20
2023-02-08T11:25:00.613Z,10.20
2023-02-08T11:27:33.284Z,8.23
2023-02-08T11:30:31.553Z,8.20
2023-02-08T11:33:25.694Z,7.88
2023-02-08T11:36:07.942Z,7.70
2023-02-08T11:38:38.545Z,8.55
2023-02-08T11:41:16.029Z,7.38
2023-02-08T11:43:44.274Z,8.95
2023-02-08T11:46:12.318Z,8.20
2023-02-08T11:48:47.879Z,7.90
2023-02-08T11:51:29.933Z,8.27
2023-02-08T11:53:58.424Z,11.15
2023-02-08T11:56:28.630Z,12.13
2023-02-08T11:58:58.698Z,10.68
2023-02-08T12:01:28.905Z,8.77
2023-02-08T12:04:01.647Z,7.03
2023-02-08T12:06:48.007Z,7.07
2023-02-08T12:09:25.501Z,7.43
2023-02-08T12:11:57.948Z,6.72
2023-02-08T12:14:37.485Z,6.97
2023-02-08T12:17:18.082Z,5.85
2023-02-08T12:20:05.406Z,5.13
2023-02-08T12:22:33.471Z,5.28
2023-02-08T12:25:15.528Z,5.13
2023-02-08T12:27:47.335Z,5.00
2023-02-08T12:30:22.904Z,4.88
2023-02-08T12:33:06.317Z,5.10
2023-02-08T12:36:03.076Z,4.90
2023-02-08T12:39:10.405Z,5.43
2023-02-08T12:41:53.676Z,4.90
2023-02-08T12:44:30.879Z,4.50
2023-02-08T12:47:10.261Z,4.90
2023-02-08T12:49:57.740Z,4.60
2023-02-08T12:52:36.664Z,4.45
2023-02-08T12:55:11.210Z,4.28
2023-02-08T12:57:41.952Z,4.22
2023-02-08T13:00:20.062Z,3.95
2023-02-08T13:02:57.481Z,3.67
2023-02-08T13:05:28.682Z,3.60
2023-02-08T13:08:02.857Z,3.80
2023-02-08T13:10:34.832Z,3.80
2023-02-08T13:13:07.411Z,2.47
2023-02-08T13:15:39.886Z,3.08
2023-02-08T13:18:16.763Z,2.97
2023-02-08T13:20:47.431Z,3.13
2023-02-08T13:23:23.065Z,2.92
2023-02-08T13:25:53.545Z,3.47
2023-02-08T13:28:25.927Z,3.03
2023-02-08T13:30:57.423Z,3.15
2023-02-08T13:33:31.748Z,2.83
2023-02-08T13:35:59.958Z,2.70
2023-02-08T13:38:31.001Z,3.00
2023-02-08T13:41:16.430Z,3.03
2023-02-08T13:43:49.416Z,3.30
2023-02-08T13:46:20.597Z,3.00
2023-02-08T13:48:50.356Z,2.72
2023-02-08T13:51:58.730Z,3.20
2023-02-08T13:54:28.243Z,2.67
2023-02-08T13:56:56.207Z,2.80
2023-02-08T13:59:36.226Z,2.90
2023-02-08T14:02:38.607Z,2.92
2023-02-08T14:05:34.646Z,2.83
2023-02-08T14:08:04.678Z,3.13
2023-02-08T14:10:38.561Z,4.03
2023-02-08T14:13:09.543Z,3.63
2023-02-08T14:15:43.493Z,3.33
2023-02-08T14:18:27.381Z,3.53
2023-02-08T14:21:06.996Z,3.38
2023-02-08T14:23:40.385Z,3.05
2023-02-08T14:26:11.649Z,3.00
2023-02-08T14:28:42.482Z,3.08
2023-02-08T14:31:12.264Z,3.00
2023-02-08T14:33:42.669Z,2.50
2023-02-08T14:36:34.579Z,2.45
2023-02-08T14:39:09.964Z,2.72
2023-02-08T14:41:50.617Z,2.75
2023-02-08T14:44:56.236Z,3.03
2023-02-08T14:48:00.469Z,3.03
2023-02-08T14:50:37.398Z,6.57
2023-02-08T14:53:15.777Z,11.18
2023-02-08T14:55:47.340Z,6.47
2023-02-08T14:58:25.480Z,7.97
2023-02-08T15:00:55.423Z,7.75
2023-02-08T15:03:23.496Z,8.55
2023-02-08T15:06:32.863Z,7.95
2023-02-08T15:09:01.333Z,7.32
2023-02-08T15:11:31.423Z,9.73
2023-02-08T15:14:03.766Z,6.65
2023-02-08T15:16:36.385Z,9.63
2023-02-08T15:19:04.847Z,23.13
2023-02-08T15:21:36.692Z,18.48
2023-02-08T15:24:08.284Z,13.25
2023-02-08T15:26:36.160Z,10.32
2023-02-08T15:29:05.221Z,8.00
2023-02-08T15:31:34.550Z,6.70
2023-02-08T15:34:03.319Z,9.13
2023-02-08T15:36:33.585Z,5.70
2023-02-08T15:39:03.712Z,7.50
2023-02-08T15:41:34.346Z,14.10
2023-02-08T15:44:16.166Z,5.50
2023-02-08T15:46:44.838Z,5.13
2023-02-08T15:49:15.815Z,5.35
2023-02-08T15:51:44.600Z,5.40
2023-02-08T15:54:17.447Z,6.90
2023-02-08T15:56:50.970Z,6.78
2023-02-08T15:59:25.593Z,5.15
2023-02-08T16:01:54.779Z,4.60
2023-02-08T16:04:22.791Z,4.18
2023-02-08T16:06:52.201Z,4.63
2023-02-08T16:09:22.641Z,4.55
2023-02-08T16:11:52.621Z,4.43
2023-02-08T16:14:28.781Z,4.35
2023-02-08T16:17:01.059Z,4.18
2023-02-08T16:19:31.126Z,4.20
2023-02-08T16:22:16.970Z,4.30
2023-02-08T16:24:46.968Z,4.03
2023-02-08T16:27:21.724Z,3.90
2023-02-08T16:29:51.940Z,4.55
2023-02-08T16:32:25.820Z,4.38
2023-02-08T16:34:55.032Z,4.00
2023-02-08T16:37:27.441Z,4.35
2023-02-08T16:39:58.105Z,11.25
2023-02-08T16:42:30.909Z,14.25
2023-02-08T16:45:04.550Z,14.65
2023-02-08T16:47:37.840Z,10.75
2023-02-08T16:50:06.463Z,8.43
2023-02-08T16:52:34.911Z,6.28
2023-02-08T16:55:02.929Z,4.78
2023-02-08T16:57:40.400Z,4.38
2023-02-08T17:00:18.537Z,5.25
2023-02-08T17:02:46.415Z,6.35
2023-02-08T17:05:14.609Z,6.13
2023-02-08T17:07:42.787Z,5.28
2023-02-08T17:10:30.206Z,8.20
2023-02-08T17:13:17.120Z,6.53
2023-02-08T17:15:50.507Z,5.47
2023-02-08T17:18:18.890Z,4.82
2023-02-08T17:20:46.978Z,5.03
2023-02-08T17:23:15.920Z,5.00
2023-02-08T17:25:44.630Z,4.90
2023-02-08T17:28:16.098Z,5.15
2023-02-08T17:30:44.766Z,5.32
2023-02-08T17:33:18.296Z,5.38
2023-02-08T17:35:46.874Z,5.25
2023-02-08T17:38:15.768Z,4.80
2023-02-08T17:40:44.232Z,4.90
2023-02-08T17:43:13.383Z,5.53
2023-02-08T17:45:44.144Z,5.28
2023-02-08T17:48:14.429Z,5.38
2023-02-08T17:50:48.896Z,5.45
2023-02-08T17:53:16.707Z,5.32
2023-02-08T17:55:45.369Z,5.30
2023-02-08T17:58:13.862Z,5.72
2023-02-08T18:00:41.960Z,5.57
2023-02-08T18:03:10.111Z,6.00
2023-02-08T18:05:39.819Z,6.40
2023-02-08T18:08:07.792Z,6.18
2023-02-08T18:10:35.919Z,6.70
2023-02-08T18:13:03.802Z,6.40
2023-02-08T18:15:31.807Z,7.65
2023-02-08T18:17:59.650Z,7.43
2023-02-08T18:20:28.562Z,7.75
2023-02-08T18:22:58.418Z,7.35
2023-02-08T18:25:26.196Z,7.28
2023-02-08T18:27:54.058Z,8.20
2023-02-08T18:30:22.836Z,8.45
2023-02-08T18:32:50.545Z,8.52
2023-02-08T18:35:18.589Z,8.60
2023-02-08T18:37:49.522Z,9.77
2023-02-08T18:40:19.086Z,10.18
2023-02-08T18:42:46.980Z,10.85
2023-02-08T18:45:15.316Z,10.27
2023-02-08T18:47:43.323Z,10.98
2023-02-08T18:50:11.904Z,11.32
2023-02-08T18:52:39.779Z,12.02
2023-02-08T18:55:08.287Z,12.20
2023-02-08T18:57:39.966Z,13.88
2023-02-08T19:00:09.622Z,13.23
2023-02-08T19:02:39.634Z,13.07
2023-02-08T19:05:08.143Z,12.90
2023-02-08T19:07:38.852Z,13.27
2023-02-08T19:10:08.147Z,13.27
2023-02-08T19:12:38.469Z,13.77
2023-02-08T19:15:07.915Z,16.42
2023-02-08T19:17:36.096Z,22.92
2023-02-08T19:20:06.179Z,36.92
2023-02-08T19:22:34.806Z,31.67
2023-02-08T19:25:02.605Z,31.40
2023-02-08T19:27:30.734Z,30.05
2023-02-08T19:30:00.329Z,27.25
2023-02-08T19:32:28.233Z,29.45
2023-02-08T19:34:56.264Z,27.58
2023-02-08T19:37:24.770Z,27.50
2023-02-08T19:39:52.553Z,25.48
2023-02-08T19:42:20.601Z,24.65
2023-02-08T19:44:49.581Z,23.35
2023-02-08T19:47:19.175Z,22.73
2023-02-08T19:49:48.425Z,20.05
2023-02-08T19:52:19.982Z,23.52
2023-02-08T19:54:48.787Z,22.30
2023-02-08T19:57:18.019Z,22.70
2023-02-08T19:59:46.718Z,24.23
2023-02-08T20:02:15.594Z,24.80
2023-02-08T20:04:45.259Z,26.98
2023-02-08T20:07:13.625Z,33.08
2023-02-08T20:09:42.114Z,34.53
2023-02-08T20:12:10.027Z,34.95
2023-02-08T20:14:39.484Z,36.58
2023-02-08T20:17:07.254Z,39.40
2023-02-08T20:19:37.537Z,41.97
2023-02-08T20:22:06.859Z,40.42
2023-02-08T20:24:34.737Z,41.30
2023-02-08T20:27:02.614Z,41.92
2023-02-08T20:29:30.848Z,42.17
2023-02-08T20:32:01.236Z,42.53
2023-02-08T20:34:30.297Z,40.03
2023-02-08T20:37:07.436Z,43.83
2023-02-08T20:39:38.610Z,41.80
2023-02-08T20:42:07.015Z,42.80
2023-02-08T20:44:35.921Z,37.33
2023-02-08T20:47:03.989Z,34.03
2023-02-08T20:49:33.334Z,35.00
2023-02-08T20:52:01.967Z,34.83
2023-02-08T20:54:29.911Z,31.48
2023-02-08T20:56:59.333Z,30.42
2023-02-08T20:59:27.229Z,26.70
2023-02-08T21:01:55.636Z,26.05
2023-02-08T21:04:27.115Z,24.67
2023-02-08T21:06:55.085Z,24.50
2023-02-08T21:09:25.441Z,24.30
2023-02-08T21:11:53.927Z,23.15
2023-02-08T21:14:24.177Z,23.80
2023-02-08T21:16:56.003Z,27.25
2023-02-08T21:19:26.280Z,27.48
2023-02-08T21:22:01.478Z,27.02
2023-02-08T21:24:38.412Z,27.00
2023-02-08T21:27:20.073Z,26.75
2023-02-08T21:30:11.032Z,28.20
2023-02-08T21:32:41.767Z,27.08
2023-02-08T21:35:09.628Z,26.45
2023-02-08T21:37:37.421Z,27.90
2023-02-08T21:40:06.163Z,25.67
2023-02-08T21:42:34.861Z,24.30
2023-02-08T21:45:04.364Z,22.42
2023-02-08T21:47:32.326Z,21.67
2023-02-08T21:50:17.848Z,22.35
2023-02-08T21:53:03.279Z,21.50
2023-02-08T21:55:31.974Z,21.80
2023-02-08T21:57:59.873Z,21.77
2023-02-08T22:00:29.461Z,20.40
2023-02-08T22:02:57.977Z,16.33
2023-02-08T22:05:26.981Z,12.85
2023-02-08T22:07:57.462Z,9.63
2023-02-08T22:10:29.032Z,9.70
2023-02-08T22:12:57.401Z,8.35
2023-02-08T22:15:27.193Z,9.13
2023-02-08T22:17:59.580Z,9.43
2023-02-08T22:20:27.911Z,8.07
2023-02-08T22:22:55.930Z,8.25
2023-02-08T22:25:24.451Z,7.70
2023-02-08T22:27:52.241Z,7.78
2023-02-08T22:30:22.121Z,8.05
2023-02-08T22:32:51.117Z,7.68
2023-02-08T22:35:20.438Z,7.00
2023-02-08T22:37:49.501Z,7.65
2023-02-08T22:40:17.562Z,7.22
2023-02-08T22:42:45.479Z,6.88
2023-02-08T22:45:13.862Z,6.68
2023-02-08T22:47:46.016Z,7.00
2023-02-08T22:50:14.055Z,7.30
2023-02-08T22:52:43.304Z,6.68
2023-02-08T22:55:13.014Z,7.70
2023-02-08T22:57:43.457Z,6.65
2023-02-08T23:00:14.777Z,7.13
2023-02-08T23:02:42.741Z,7.03
2023-02-08T23:05:15.121Z,7.28
2023-02-08T23:07:44.463Z,6.30
2023-02-08T23:10:12.804Z,6.93
2023-02-08T23:12:41.022Z,6.78
2023-02-08T23:15:11.355Z,6.85
2023-02-08T23:17:39.490Z,6.45
2023-02-08T23:20:08.902Z,7.07
2023-02-08T23:22:37.871Z,6.78
2023-02-08T23:25:08.312Z,6.53
2023-02-08T23:27:36.559Z,6.82
2023-02-08T23:30:05.025Z,6.45
2023-02-08T23:32:35.771Z,6.30
2023-02-08T23:35:03.610Z,7.00
2023-02-08T23:37:31.519Z,6.93
2023-02-08T23:40:00.048Z,6.25
2023-02-08T23:42:29.604Z,6.78
2023-02-08T23:45:00.698Z,7.30
2023-02-08T23:47:29.805Z,8.43
2023-02-08T23:49:57.942Z,7.22
2023-02-08T23:52:25.691Z,7.55
2023-02-08T23:54:53.782Z,6.75
2023-02-08T23:57:21.816Z,7.43
2023-02-08T23:59:51.221Z,7.25
